sensor_id;sensor_type;location;lat;lon;timestamp;pressure;altitude;pressure_sealevel;temperature;humidity
46366;BME280;72328;49.570;8.722;2023-10-13T00:00:28;99645.94;;;22.18;51.00
46366;BME280;72328;49.570;8.722;2023-10-13T00:04:36;99645.28;;;22.16;51.25
46366;BME280;72328;49.570;8.722;2023-10-13T00:08:37;99647.44;;;22.12;51.00
46366;BME280;72328;49.570;8.722;2023-10-13T00:12:38;99644.03;;;22.12;51.14
46366;BME280;72328;49.570;8.722;2023-10-13T00:16:39;99649.28;;;22.12;51.16
46366;BME280;72328;49.570;8.722;2023-10-13T00:20:41;99649.44;;;22.10;51.33
46366;BME280;72328;49.570;8.722;2023-10-13T00:24:49;99647.00;;;22.09;51.38
46366;BME280;72328;49.570;8.722;2023-10-13T00:28:54;99648.16;;;22.06;51.29
46366;BME280;72328;49.570;8.722;2023-10-13T00:33:07;99651.78;;;22.05;51.35
46366;BME280;72328;49.570;8.722;2023-10-13T00:37:09;99641.00;;;22.00;51.45
46366;BME280;72328;49.570;8.722;2023-10-13T00:41:28;99640.19;;;22.00;51.49
46366;BME280;72328;49.570;8.722;2023-10-13T00:45:53;99639.72;;;21.96;51.98
46366;BME280;72328;49.570;8.722;2023-10-13T00:50:08;99636.66;;;21.93;51.80
46366;BME280;72328;49.570;8.722;2023-10-13T00:54:15;99637.09;;;21.96;51.90
46366;BME280;72328;49.570;8.722;2023-10-13T00:58:19;99633.50;;;21.97;51.72
46366;BME280;72328;49.570;8.722;2023-10-13T01:02:22;99626.00;;;21.94;51.86
46366;BME280;72328;49.570;8.722;2023-10-13T01:06:39;99620.09;;;21.92;51.93
46366;BME280;72328;49.570;8.722;2023-10-13T01:10:40;99614.22;;;21.90;51.83
46366;BME280;72328;49.570;8.722;2023-10-13T01:14:42;99612.44;;;21.91;52.05
46366;BME280;72328;49.570;8.722;2023-10-13T01:18:43;99611.44;;;21.92;52.08
46366;BME280;72328;49.570;8.722;2023-10-13T01:22:49;99602.13;;;21.89;52.02
46366;BME280;72328;49.570;8.722;2023-10-13T01:26:55;99598.66;;;21.89;52.22
46366;BME280;72328;49.570;8.722;2023-10-13T01:30:56;99595.03;;;21.90;52.37
46366;BME280;72328;49.570;8.722;2023-10-13T01:34:57;99593.41;;;21.89;52.44
46366;BME280;72328;49.570;8.722;2023-10-13T01:39:05;99585.38;;;21.90;52.43
46366;BME280;72328;49.570;8.722;2023-10-13T01:43:06;99589.81;;;21.90;52.35
46366;BME280;72328;49.570;8.722;2023-10-13T01:47:11;99589.63;;;21.91;52.44
46366;BME280;72328;49.570;8.722;2023-10-13T01:51:13;99585.22;;;21.92;52.37
46366;BME280;72328;49.570;8.722;2023-10-13T01:55:14;99581.59;;;21.93;52.66
46366;BME280;72328;49.570;8.722;2023-10-13T01:59:15;99585.03;;;21.93;52.47
46366;BME280;72328;49.570;8.722;2023-10-13T02:03:16;99573.72;;;21.93;52.55
46366;BME280;72328;49.570;8.722;2023-10-13T02:07:16;99569.94;;;21.95;52.59
46366;BME280;72328;49.570;8.722;2023-10-13T02:11:17;99559.28;;;21.97;52.87
46366;BME280;72328;49.570;8.722;2023-10-13T02:15:19;99549.22;;;22.00;52.61
46366;BME280;72328;49.570;8.722;2023-10-13T02:19:26;99558.00;;;22.07;52.53
46366;BME280;72328;49.570;8.722;2023-10-13T02:23:28;99558.00;;;22.07;52.72
46366;BME280;72328;49.570;8.722;2023-10-13T02:27:29;99560.28;;;22.10;52.56
46366;BME280;72328;49.570;8.722;2023-10-13T02:31:42;99557.28;;;22.13;52.70
46366;BME280;72328;49.570;8.722;2023-10-13T02:35:43;99555.31;;;22.15;52.90
46366;BME280;72328;49.570;8.722;2023-10-13T02:39:55;99547.06;;;22.18;53.04
46366;BME280;72328;49.570;8.722;2023-10-13T02:43:58;99548.16;;;22.24;53.15
46366;BME280;72328;49.570;8.722;2023-10-13T02:47:58;99547.25;;;22.31;53.09
46366;BME280;72328;49.570;8.722;2023-10-13T02:52:17;99548.31;;;22.37;53.07
46366;BME280;72328;49.570;8.722;2023-10-13T02:56:18;99544.81;;;22.44;53.23
46366;BME280;72328;49.570;8.722;2023-10-13T03:00:22;99540.66;;;22.50;53.25
46366;BME280;72328;49.570;8.722;2023-10-13T03:04:24;99536.47;;;22.55;52.95
46366;BME280;72328;49.570;8.722;2023-10-13T03:08:26;99532.47;;;22.59;53.24
46366;BME280;72328;49.570;8.722;2023-10-13T03:12:27;99538.63;;;22.66;52.87
46366;BME280;72328;49.570;8.722;2023-10-13T03:16:34;99524.31;;;22.69;52.74
46366;BME280;72328;49.570;8.722;2023-10-13T03:20:38;99520.31;;;22.73;52.84
46366;BME280;72328;49.570;8.722;2023-10-13T03:24:43;99519.13;;;22.75;53.01
46366;BME280;72328;49.570;8.722;2023-10-13T03:28:53;99516.16;;;22.78;52.88
46366;BME280;72328;49.570;8.722;2023-10-13T03:32:56;99515.75;;;22.81;53.03
46366;BME280;72328;49.570;8.722;2023-10-13T03:36:57;99518.22;;;22.83;52.80
46366;BME280;72328;49.570;8.722;2023-10-13T03:40:57;99516.84;;;22.87;52.54
46366;BME280;72328;49.570;8.722;2023-10-13T03:45:08;99505.53;;;22.86;52.75
46366;BME280;72328;49.570;8.722;2023-10-13T03:49:11;99493.84;;;22.89;52.59
46366;BME280;72328;49.570;8.722;2023-10-13T03:53:13;99496.88;;;22.92;52.81
46366;BME280;72328;49.570;8.722;2023-10-13T03:57:14;99494.09;;;22.94;52.42
46366;BME280;72328;49.570;8.722;2023-10-13T04:01:16;99493.28;;;22.93;52.77
46366;BME280;72328;49.570;8.722;2023-10-13T04:05:17;99480.16;;;22.93;52.54
46366;BME280;72328;49.570;8.722;2023-10-13T04:09:37;99482.41;;;22.96;52.84
46366;BME280;72328;49.570;8.722;2023-10-13T04:13:47;99478.59;;;22.99;52.61
46366;BME280;72328;49.570;8.722;2023-10-13T04:18:07;99470.53;;;23.00;52.98
46366;BME280;72328;49.570;8.722;2023-10-13T04:22:19;99461.63;;;23.01;53.03
46366;BME280;72328;49.570;8.722;2023-10-13T04:26:21;99473.81;;;23.09;52.58
46366;BME280;72328;49.570;8.722;2023-10-13T04:30:22;99474.25;;;23.12;52.72
46366;BME280;72328;49.570;8.722;2023-10-13T04:34:33;99473.06;;;23.15;52.50
46366;BME280;72328;49.570;8.722;2023-10-13T04:38:43;99473.53;;;23.18;52.78
46366;BME280;72328;49.570;8.722;2023-10-13T04:42:56;99464.28;;;23.22;52.37
46366;BME280;72328;49.570;8.722;2023-10-13T04:46:58;99452.75;;;23.23;52.68
46366;BME280;72328;49.570;8.722;2023-10-13T04:51:00;99450.78;;;23.25;52.54
46366;BME280;72328;49.570;8.722;2023-10-13T04:55:39;99435.44;;;23.29;52.72
46366;BME280;72328;49.570;8.722;2023-10-13T05:00:08;99421.88;;;23.32;52.60
46366;BME280;72328;49.570;8.722;2023-10-13T05:04:11;99436.09;;;23.37;52.88
46366;BME280;72328;49.570;8.722;2023-10-13T05:08:14;99436.09;;;23.37;52.88
46366;BME280;72328;49.570;8.722;2023-10-13T05:12:33;99438.31;;;23.40;52.64
46366;BME280;72328;49.570;8.722;2023-10-13T05:16:53;99434.91;;;23.40;52.43
46366;BME280;72328;49.570;8.722;2023-10-13T05:21:12;99436.34;;;23.42;52.27
46366;BME280;72328;49.570;8.722;2023-10-13T05:25:35;99430.91;;;23.44;52.66
46366;BME280;72328;49.570;8.722;2023-10-13T05:29:54;99420.16;;;23.45;52.70
46366;BME280;72328;49.570;8.722;2023-10-13T05:34:13;99418.00;;;23.49;52.44
46366;BME280;72328;49.570;8.722;2023-10-13T05:38:32;99421.66;;;23.54;52.51
46366;BME280;72328;49.570;8.722;2023-10-13T05:42:51;99406.88;;;23.53;52.51
46366;BME280;72328;49.570;8.722;2023-10-13T05:47:11;99409.94;;;23.57;52.43
46366;BME280;72328;49.570;8.722;2023-10-13T05:51:32;99405.50;;;23.57;52.51
46366;BME280;72328;49.570;8.722;2023-10-13T05:55:47;99402.66;;;23.59;52.72
46366;BME280;72328;49.570;8.722;2023-10-13T06:00:07;99392.59;;;23.62;52.37
46366;BME280;72328;49.570;8.722;2023-10-13T06:04:26;99386.13;;;23.65;52.56
46366;BME280;72328;49.570;8.722;2023-10-13T06:08:48;99376.41;;;23.65;52.34
46366;BME280;72328;49.570;8.722;2023-10-13T06:13:07;99392.81;;;23.67;52.24
46366;BME280;72328;49.570;8.722;2023-10-13T06:17:26;99387.75;;;23.66;52.60
46366;BME280;72328;49.570;8.722;2023-10-13T06:21:46;99391.81;;;23.68;52.44
46366;BME280;72328;49.570;8.722;2023-10-13T06:26:05;99407.41;;;23.76;52.57
46366;BME280;72328;49.570;8.722;2023-10-13T06:30:24;99416.16;;;23.83;52.23
46366;BME280;72328;49.570;8.722;2023-10-13T06:34:25;99417.22;;;23.89;52.59
46366;BME280;72328;49.570;8.722;2023-10-13T06:38:38;99424.72;;;23.92;52.51
46366;BME280;72328;49.570;8.722;2023-10-13T06:42:38;99427.16;;;23.93;52.52
46366;BME280;72328;49.570;8.722;2023-10-13T06:46:42;99430.00;;;23.92;51.91
46366;BME280;72328;49.570;8.722;2023-10-13T06:50:48;99434.06;;;23.94;52.32
46366;BME280;72328;49.570;8.722;2023-10-13T06:54:53;99446.22;;;24.02;52.03
46366;BME280;72328;49.570;8.722;2023-10-13T06:58:54;99443.59;;;24.08;51.88
46366;BME280;72328;49.570;8.722;2023-10-13T07:03:05;99441.19;;;24.13;52.20
46366;BME280;72328;49.570;8.722;2023-10-13T07:07:18;99436.78;;;24.20;52.16
46366;BME280;72328;49.570;8.722;2023-10-13T07:11:23;99428.53;;;24.30;51.93
46366;BME280;72328;49.570;8.722;2023-10-13T07:15:34;99428.97;;;24.40;52.05
46366;BME280;72328;49.570;8.722;2023-10-13T07:19:36;99425.59;;;24.65;51.50
46366;BME280;72328;49.570;8.722;2023-10-13T07:23:45;99429.06;;;24.85;51.89
46366;BME280;72328;49.570;8.722;2023-10-13T07:28:01;99431.53;;;25.06;51.47
46366;BME280;72328;49.570;8.722;2023-10-13T07:32:02;99437.41;;;25.47;52.44
46366;BME280;72328;49.570;8.722;2023-10-13T07:36:05;99435.25;;;26.52;52.13
46366;BME280;72328;49.570;8.722;2023-10-13T07:40:16;99444.66;;;28.13;52.61
46366;BME280;72328;49.570;8.722;2023-10-13T07:44:43;99442.91;;;30.33;51.73
46366;BME280;72328;49.570;8.722;2023-10-13T07:48:46;99436.50;;;31.56;50.34
46366;BME280;72328;49.570;8.722;2023-10-13T07:52:47;99435.22;;;31.97;48.80
46366;BME280;72328;49.570;8.722;2023-10-13T07:57:07;99428.72;;;32.79;48.13
46366;BME280;72328;49.570;8.722;2023-10-13T08:01:08;99426.09;;;34.08;47.28
46366;BME280;72328;49.570;8.722;2023-10-13T08:05:09;99421.47;;;35.20;46.42
46366;BME280;72328;49.570;8.722;2023-10-13T08:09:14;99414.59;;;36.52;45.25
46366;BME280;72328;49.570;8.722;2023-10-13T08:13:31;99421.97;;;37.65;44.67
46366;BME280;72328;49.570;8.722;2023-10-13T08:17:31;99424.69;;;38.86;43.63
46366;BME280;72328;49.570;8.722;2023-10-13T08:21:32;99430.22;;;40.08;42.99
46366;BME280;72328;49.570;8.722;2023-10-13T08:25:34;99431.97;;;40.17;43.14
46366;BME280;72328;49.570;8.722;2023-10-13T08:30:13;99432.47;;;38.51;44.26
46366;BME280;72328;49.570;8.722;2023-10-13T08:34:34;99426.56;;;38.30;45.25
46366;BME280;72328;49.570;8.722;2023-10-13T08:38:44;99418.63;;;38.76;44.96
46366;BME280;72328;49.570;8.722;2023-10-13T08:42:55;99427.53;;;39.40;45.44
46366;BME280;72328;49.570;8.722;2023-10-13T08:47:05;99427.56;;;39.81;44.81
46366;BME280;72328;49.570;8.722;2023-10-13T08:51:06;99428.97;;;39.78;44.78
46366;BME280;72328;49.570;8.722;2023-10-13T08:55:11;99410.75;;;39.57;44.95
46366;BME280;72328;49.570;8.722;2023-10-13T08:59:31;99417.94;;;39.48;44.29
46366;BME280;72328;49.570;8.722;2023-10-13T09:03:42;99396.81;;;39.23;45.05
46366;BME280;72328;49.570;8.722;2023-10-13T09:07:46;99407.47;;;39.01;44.83
46366;BME280;72328;49.570;8.722;2023-10-13T09:11:49;99393.34;;;38.72;44.89
46366;BME280;72328;49.570;8.722;2023-10-13T09:15:50;99389.56;;;37.99;43.82
46366;BME280;72328;49.570;8.722;2023-10-13T09:20:03;99400.66;;;37.22;43.52
46366;BME280;72328;49.570;8.722;2023-10-13T09:24:22;99392.56;;;36.54;43.29
46366;BME280;72328;49.570;8.722;2023-10-13T09:28:32;99387.72;;;36.18;43.33
46366;BME280;72328;49.570;8.722;2023-10-13T09:32:33;99384.81;;;36.04;42.68
46366;BME280;72328;49.570;8.722;2023-10-13T09:36:46;99369.28;;;35.96;40.79
46366;BME280;72328;49.570;8.722;2023-10-13T09:40:48;99358.31;;;36.42;38.81
46366;BME280;72328;49.570;8.722;2023-10-13T09:44:52;99355.78;;;36.11;38.96
46366;BME280;72328;49.570;8.722;2023-10-13T09:48:59;99339.50;;;35.44;39.00
46366;BME280;72328;49.570;8.722;2023-10-13T09:53:08;99334.50;;;34.78;38.17
46366;BME280;72328;49.570;8.722;2023-10-13T09:57:13;99329.13;;;34.43;39.51
46366;BME280;72328;49.570;8.722;2023-10-13T10:01:24;99332.31;;;34.30;39.23
46366;BME280;72328;49.570;8.722;2023-10-13T10:05:32;99325.88;;;34.26;39.76
46366;BME280;72328;49.570;8.722;2023-10-13T10:09:35;99334.19;;;34.54;39.71
46366;BME280;72328;49.570;8.722;2023-10-13T10:13:58;99323.75;;;34.98;37.61
46366;BME280;72328;49.570;8.722;2023-10-13T10:18:04;99323.69;;;35.96;36.50
46366;BME280;72328;49.570;8.722;2023-10-13T10:22:05;99324.19;;;36.81;35.69
46366;BME280;72328;49.570;8.722;2023-10-13T10:26:17;99322.41;;;36.33;34.75
46366;BME280;72328;49.570;8.722;2023-10-13T10:30:27;99322.31;;;35.50;36.32
46366;BME280;72328;49.570;8.722;2023-10-13T10:34:31;99312.78;;;34.99;36.29
46366;BME280;72328;49.570;8.722;2023-10-13T10:38:35;99315.22;;;34.81;36.87
46366;BME280;72328;49.570;8.722;2023-10-13T10:42:38;99313.34;;;34.56;37.02
46366;BME280;72328;49.570;8.722;2023-10-13T10:46:40;99309.59;;;34.32;37.24
46366;BME280;72328;49.570;8.722;2023-10-13T10:50:44;99292.94;;;34.00;36.57
46366;BME280;72328;49.570;8.722;2023-10-13T10:54:45;99297.19;;;33.81;36.67
46366;BME280;72328;49.570;8.722;2023-10-13T10:58:56;99286.38;;;33.51;36.30
46366;BME280;72328;49.570;8.722;2023-10-13T11:02:57;99269.13;;;33.22;36.24
46366;BME280;72328;49.570;8.722;2023-10-13T11:06:58;99270.63;;;33.03;36.54
46366;BME280;72328;49.570;8.722;2023-10-13T11:10:59;99267.88;;;32.88;36.70
46366;BME280;72328;49.570;8.722;2023-10-13T11:15:05;99252.94;;;32.56;35.76
46366;BME280;72328;49.570;8.722;2023-10-13T11:19:14;99264.38;;;32.20;35.91
46366;BME280;72328;49.570;8.722;2023-10-13T11:23:15;99260.06;;;31.87;36.11
46366;BME280;72328;49.570;8.722;2023-10-13T11:27:16;99248.63;;;31.65;36.18
46366;BME280;72328;49.570;8.722;2023-10-13T11:31:42;99267.34;;;31.49;36.25
46366;BME280;72328;49.570;8.722;2023-10-13T11:35:42;99249.47;;;31.23;36.02
46366;BME280;72328;49.570;8.722;2023-10-13T11:39:49;99247.25;;;30.98;36.11
46366;BME280;72328;49.570;8.722;2023-10-13T11:43:52;99233.66;;;30.78;35.97
46366;BME280;72328;49.570;8.722;2023-10-13T11:48:05;99227.00;;;30.59;35.58
46366;BME280;72328;49.570;8.722;2023-10-13T11:52:13;99224.09;;;30.44;35.79
46366;BME280;72328;49.570;8.722;2023-10-13T11:56:16;99220.00;;;30.37;35.79
46366;BME280;72328;49.570;8.722;2023-10-13T12:00:18;99212.69;;;30.27;35.92
46366;BME280;72328;49.570;8.722;2023-10-13T12:04:39;99204.63;;;30.22;36.12
46366;BME280;72328;49.570;8.722;2023-10-13T12:08:48;99206.31;;;30.28;36.35
46366;BME280;72328;49.570;8.722;2023-10-13T12:12:52;99198.50;;;30.38;35.77
46366;BME280;72328;49.570;8.722;2023-10-13T12:16:55;99188.41;;;30.40;36.54
46366;BME280;72328;49.570;8.722;2023-10-13T12:20:56;99196.00;;;30.48;36.63
46366;BME280;72328;49.570;8.722;2023-10-13T12:24:57;99181.81;;;30.59;36.60
46366;BME280;72328;49.570;8.722;2023-10-13T12:28:59;99170.41;;;30.80;36.67
46366;BME280;72328;49.570;8.722;2023-10-13T12:33:07;99162.06;;;30.93;36.65
46366;BME280;72328;49.570;8.722;2023-10-13T12:37:09;99164.25;;;30.96;36.60
46366;BME280;72328;49.570;8.722;2023-10-13T12:41:30;99140.34;;;31.01;36.76
46366;BME280;72328;49.570;8.722;2023-10-13T12:45:50;99150.94;;;30.96;36.50
46366;BME280;72328;49.570;8.722;2023-10-13T12:50:10;99130.06;;;30.88;36.41
46366;BME280;72328;49.570;8.722;2023-10-13T12:54:24;99129.22;;;30.83;36.17
46366;BME280;72328;49.570;8.722;2023-10-13T12:58:28;99128.81;;;30.74;36.41
46366;BME280;72328;49.570;8.722;2023-10-13T13:02:30;99136.19;;;30.67;36.46
46366;BME280;72328;49.570;8.722;2023-10-13T13:06:31;99127.66;;;30.65;36.51
46366;BME280;72328;49.570;8.722;2023-10-13T13:10:32;99128.88;;;30.58;36.20
46366;BME280;72328;49.570;8.722;2023-10-13T13:14:36;99125.31;;;30.52;36.58
46366;BME280;72328;49.570;8.722;2023-10-13T13:18:36;99113.59;;;30.48;36.19
46366;BME280;72328;49.570;8.722;2023-10-13T13:22:38;99106.09;;;30.45;36.14
46366;BME280;72328;49.570;8.722;2023-10-13T13:26:39;99105.28;;;30.45;36.63
46366;BME280;72328;49.570;8.722;2023-10-13T13:30:42;99095.16;;;30.42;36.30
46366;BME280;72328;49.570;8.722;2023-10-13T13:34:44;99088.97;;;30.36;36.79
46366;BME280;72328;49.570;8.722;2023-10-13T13:38:45;99084.69;;;30.35;37.03
46366;BME280;72328;49.570;8.722;2023-10-13T13:42:46;99089.47;;;30.33;36.35
46366;BME280;72328;49.570;8.722;2023-10-13T13:46:47;99066.09;;;30.35;36.19
46366;BME280;72328;49.570;8.722;2023-10-13T13:50:48;99071.72;;;30.39;36.74
46366;BME280;72328;49.570;8.722;2023-10-13T13:54:52;99065.34;;;30.40;36.22
46366;BME280;72328;49.570;8.722;2023-10-13T13:58:54;99058.19;;;30.40;36.75
46366;BME280;72328;49.570;8.722;2023-10-13T14:02:56;99044.75;;;30.47;37.10
46366;BME280;72328;49.570;8.722;2023-10-13T14:06:58;99038.53;;;30.63;37.53
46366;BME280;72328;49.570;8.722;2023-10-13T14:10:59;99030.56;;;30.84;37.54
46366;BME280;72328;49.570;8.722;2023-10-13T14:15:12;99028.41;;;31.08;37.01
46366;BME280;72328;49.570;8.722;2023-10-13T14:19:24;99025.38;;;31.21;36.75
46366;BME280;72328;49.570;8.722;2023-10-13T14:23:27;99023.00;;;31.24;36.72
46366;BME280;72328;49.570;8.722;2023-10-13T14:27:28;99020.84;;;31.21;36.12
46366;BME280;72328;49.570;8.722;2023-10-13T14:31:31;99015.41;;;31.11;36.12
46366;BME280;72328;49.570;8.722;2023-10-13T14:35:35;99015.00;;;30.98;35.87
46366;BME280;72328;49.570;8.722;2023-10-13T14:39:36;99006.13;;;30.87;36.22
46366;BME280;72328;49.570;8.722;2023-10-13T14:43:37;99012.94;;;30.78;35.66
46366;BME280;72328;49.570;8.722;2023-10-13T14:47:39;98998.50;;;30.69;35.73
46366;BME280;72328;49.570;8.722;2023-10-13T14:51:39;99010.34;;;30.62;36.06
46366;BME280;72328;49.570;8.722;2023-10-13T14:55:40;98995.38;;;30.56;35.97
46366;BME280;72328;49.570;8.722;2023-10-13T14:59:41;98985.75;;;30.50;35.88
46366;BME280;72328;49.570;8.722;2023-10-13T15:07:43;98978.00;;;30.43;35.85
46366;BME280;72328;49.570;8.722;2023-10-13T15:11:45;98963.28;;;30.36;36.39
46366;BME280;72328;49.570;8.722;2023-10-13T15:15:48;98956.03;;;30.31;35.90
46366;BME280;72328;49.570;8.722;2023-10-13T15:19:49;98945.34;;;30.26;35.87
46366;BME280;72328;49.570;8.722;2023-10-13T15:23:50;98938.13;;;30.22;36.45
46366;BME280;72328;49.570;8.722;2023-10-13T15:27:52;98940.50;;;30.18;36.12
46366;BME280;72328;49.570;8.722;2023-10-13T15:32:03;98935.66;;;30.15;36.52
46366;BME280;72328;49.570;8.722;2023-10-13T15:36:04;98930.03;;;30.12;36.38
46366;BME280;72328;49.570;8.722;2023-10-13T15:40:08;98915.38;;;30.09;36.42
46366;BME280;72328;49.570;8.722;2023-10-13T15:44:15;98907.63;;;30.08;36.65
46366;BME280;72328;49.570;8.722;2023-10-13T15:48:16;98904.44;;;30.06;36.07
46366;BME280;72328;49.570;8.722;2023-10-13T15:52:17;98898.81;;;30.02;36.31
46366;BME280;72328;49.570;8.722;2023-10-13T15:56:19;98890.81;;;29.97;36.16
46366;BME280;72328;49.570;8.722;2023-10-13T16:00:20;98886.47;;;29.91;36.34
46366;BME280;72328;49.570;8.722;2023-10-13T16:04:24;98892.78;;;29.85;35.91
46366;BME280;72328;49.570;8.722;2023-10-13T16:08:24;98893.19;;;29.77;36.04
46366;BME280;72328;49.570;8.722;2023-10-13T16:12:25;98886.22;;;29.71;35.90
46366;BME280;72328;49.570;8.722;2023-10-13T16:16:28;98889.78;;;29.60;36.22
46366;BME280;72328;49.570;8.722;2023-10-13T16:20:29;98884.47;;;29.44;36.46
46366;BME280;72328;49.570;8.722;2023-10-13T16:24:30;98884.59;;;29.32;36.06
46366;BME280;72328;49.570;8.722;2023-10-13T16:28:34;98871.34;;;29.16;36.38
46366;BME280;72328;49.570;8.722;2023-10-13T16:32:36;98866.63;;;29.01;36.46
46366;BME280;72328;49.570;8.722;2023-10-13T16:36:37;98867.50;;;28.90;36.26
46366;BME280;72328;49.570;8.722;2023-10-13T16:40:37;98861.44;;;28.78;36.20
46366;BME280;72328;49.570;8.722;2023-10-13T16:44:41;98876.16;;;28.69;36.55
46366;BME280;72328;49.570;8.722;2023-10-13T16:48:42;98856.69;;;28.64;36.43
46366;BME280;72328;49.570;8.722;2023-10-13T16:52:44;98860.06;;;28.59;36.27
46366;BME280;72328;49.570;8.722;2023-10-13T16:56:48;98856.53;;;28.54;36.28
46366;BME280;72328;49.570;8.722;2023-10-13T17:00:48;98856.66;;;28.47;36.33
46366;BME280;72328;49.570;8.722;2023-10-13T17:04:52;98855.28;;;28.45;36.66
46366;BME280;72328;49.570;8.722;2023-10-13T17:08:57;98854.97;;;28.41;36.56
46366;BME280;72328;49.570;8.722;2023-10-13T17:12:58;98852.19;;;28.36;36.30
46366;BME280;72328;49.570;8.722;2023-10-13T17:17:00;98844.75;;;28.33;36.18
46366;BME280;72328;49.570;8.722;2023-10-13T17:21:01;98847.31;;;28.28;36.36
46366;BME280;72328;49.570;8.722;2023-10-13T17:25:03;98844.34;;;28.25;36.26
46366;BME280;72328;49.570;8.722;2023-10-13T17:29:04;98838.13;;;28.19;36.46
46366;BME280;72328;49.570;8.722;2023-10-13T17:33:09;98832.50;;;28.16;36.50
46366;BME280;72328;49.570;8.722;2023-10-13T17:37:11;98821.09;;;28.15;36.30
46366;BME280;72328;49.570;8.722;2023-10-13T17:41:13;98824.34;;;28.17;36.35
46366;BME280;72328;49.570;8.722;2023-10-13T17:45:14;98818.81;;;28.19;36.18
46366;BME280;72328;49.570;8.722;2023-10-13T17:49:14;98814.06;;;28.21;36.29
46366;BME280;72328;49.570;8.722;2023-10-13T17:53:15;98828.78;;;28.28;36.13
46366;BME280;72328;49.570;8.722;2023-10-13T17:57:16;98838.09;;;28.31;35.52
46366;BME280;72328;49.570;8.722;2023-10-13T18:01:17;98822.28;;;28.36;35.37
46366;BME280;72328;49.570;8.722;2023-10-13T18:05:19;98813.97;;;28.44;35.59
46366;BME280;72328;49.570;8.722;2023-10-13T18:09:20;98810.34;;;28.50;35.71
46366;BME280;72328;49.570;8.722;2023-10-13T18:13:22;98807.78;;;28.55;35.40
46366;BME280;72328;49.570;8.722;2023-10-13T18:17:23;98792.69;;;28.55;35.24
46366;BME280;72328;49.570;8.722;2023-10-13T18:21:24;98793.03;;;28.59;35.18
46366;BME280;72328;49.570;8.722;2023-10-13T18:25:25;98791.75;;;28.61;34.88
46366;BME280;72328;49.570;8.722;2023-10-13T18:29:29;98781.94;;;28.62;35.46
46366;BME280;72328;49.570;8.722;2023-10-13T18:33:34;98778.81;;;28.65;34.89
46366;BME280;72328;49.570;8.722;2023-10-13T18:37:40;98785.47;;;28.67;34.67
46366;BME280;72328;49.570;8.722;2023-10-13T18:41:45;98791.34;;;28.69;34.96
46366;BME280;72328;49.570;8.722;2023-10-13T18:45:46;98781.53;;;28.70;35.00
46366;BME280;72328;49.570;8.722;2023-10-13T18:49:46;98780.75;;;28.69;34.92
46366;BME280;72328;49.570;8.722;2023-10-13T18:53:48;98786.03;;;28.69;34.70
46366;BME280;72328;49.570;8.722;2023-10-13T18:57:49;98768.28;;;28.70;34.95
46366;BME280;72328;49.570;8.722;2023-10-13T19:01:49;98781.06;;;28.73;34.75
46366;BME280;72328;49.570;8.722;2023-10-13T19:05:55;98757.75;;;28.75;34.05
46366;BME280;72328;49.570;8.722;2023-10-13T19:09:56;98753.81;;;28.77;34.52
46366;BME280;72328;49.570;8.722;2023-10-13T19:13:57;98753.59;;;28.79;34.00
46366;BME280;72328;49.570;8.722;2023-10-13T19:17:58;98765.78;;;28.80;33.92
46366;BME280;72328;49.570;8.722;2023-10-13T19:22:02;98754.41;;;28.79;33.82
46366;BME280;72328;49.570;8.722;2023-10-13T19:26:13;98757.84;;;28.80;34.17
46366;BME280;72328;49.570;8.722;2023-10-13T19:30:14;98744.81;;;28.78;33.80
46366;BME280;72328;49.570;8.722;2023-10-13T19:34:21;98747.47;;;28.78;33.92
46366;BME280;72328;49.570;8.722;2023-10-13T19:38:22;98758.34;;;28.77;33.80
46366;BME280;72328;49.570;8.722;2023-10-13T19:42:23;98754.88;;;28.76;33.50
46366;BME280;72328;49.570;8.722;2023-10-13T19:46:24;98759.34;;;28.76;33.58
46366;BME280;72328;49.570;8.722;2023-10-13T19:50:27;98761.22;;;28.75;33.67
46366;BME280;72328;49.570;8.722;2023-10-13T19:54:28;98763.28;;;28.73;33.93
46366;BME280;72328;49.570;8.722;2023-10-13T19:58:29;98756.31;;;28.67;33.60
46366;BME280;72328;49.570;8.722;2023-10-13T20:02:29;98764.50;;;28.66;33.20
46366;BME280;72328;49.570;8.722;2023-10-13T20:06:30;98766.59;;;28.64;33.66
46366;BME280;72328;49.570;8.722;2023-10-13T20:10:32;98745.31;;;28.59;33.42
46366;BME280;72328;49.570;8.722;2023-10-13T20:14:36;98770.47;;;28.56;33.52
46366;BME280;72328;49.570;8.722;2023-10-13T20:18:37;98761.25;;;28.42;32.92
46366;BME280;72328;49.570;8.722;2023-10-13T20:22:38;98756.50;;;28.44;32.82
46366;BME280;72328;49.570;8.722;2023-10-13T20:26:41;98761.78;;;28.44;33.58
46366;BME280;72328;49.570;8.722;2023-10-13T20:30:42;98764.13;;;28.41;33.06
46366;BME280;72328;49.570;8.722;2023-10-13T20:34:43;98761.13;;;28.37;32.77
46366;BME280;72328;49.570;8.722;2023-10-13T20:38:44;98750.78;;;28.36;33.08
46366;BME280;72328;49.570;8.722;2023-10-13T20:42:50;98756.75;;;28.31;33.15
46366;BME280;72328;49.570;8.722;2023-10-13T20:46:52;98747.00;;;28.32;33.31
46366;BME280;72328;49.570;8.722;2023-10-13T20:51:00;98749.88;;;28.30;32.98
46366;BME280;72328;49.570;8.722;2023-10-13T20:55:01;98746.09;;;28.26;33.21
46366;BME280;72328;49.570;8.722;2023-10-13T20:59:02;98764.63;;;28.26;32.88
46366;BME280;72328;49.570;8.722;2023-10-13T21:03:03;98750.75;;;28.19;33.24
46366;BME280;72328;49.570;8.722;2023-10-13T21:07:07;98760.56;;;28.19;33.29
46366;BME280;72328;49.570;8.722;2023-10-13T21:11:08;98783.00;;;28.16;33.04
46366;BME280;72328;49.570;8.722;2023-10-13T21:15:09;98773.13;;;28.12;33.16
46366;BME280;72328;49.570;8.722;2023-10-13T21:19:16;98774.91;;;28.06;33.15
46366;BME280;72328;49.570;8.722;2023-10-13T21:23:17;98783.53;;;28.02;33.26
46366;BME280;72328;49.570;8.722;2023-10-13T21:27:21;98772.06;;;27.96;33.33
46366;BME280;72328;49.570;8.722;2023-10-13T21:31:25;98769.09;;;27.93;33.10
46366;BME280;72328;49.570;8.722;2023-10-13T21:35:28;98776.22;;;27.92;33.59
46366;BME280;72328;49.570;8.722;2023-10-13T21:39:29;98773.56;;;27.92;33.24
46366;BME280;72328;49.570;8.722;2023-10-13T21:43:30;98774.28;;;27.88;33.59